LFRC 221130Z AUTO 25026KT 9999 OVC008 10/09 Q1024 TEMPO 24030G40KT 4000 DZ

ElémentsDécodage
LFRC Station météo située sur l'aérodrome de CHERBOURG Maupertus
221130Z émis le 22 du mois à 11h30 UTC
AUTO Bulletin édité par un automate
25026KT vent du 250°, 26 noeuds
9999 visibilité horizontale supérieure à 10 Km
OVC008 couverture nuageuse totale (8/8) à 800 pieds
10/09 température 10°C, point de rosée 09°C
 soit une humidité relative de 94%
Q1024 la pression au niveau de la mer (QNH) est de 1024 hPa
TEMPO fluctuation temporaire prévue
24030G40KT vent du 240°, moyenne: 30 noeuds, avec rafales à 40 noeuds
4000 visibilité horizontale de 4000 mètres
DZ bruine